sensor_id;sensor_type;location;lat;lon;timestamp;pressure;altitude;pressure_sealevel;temperature;humidity
17209;BME280;8720;48.488;9.202;2023-02-02T00:01:22;97708.00;;;10.28;56.47
17209;BME280;8720;48.488;9.202;2023-02-02T00:03:50;97709.75;;;10.29;56.41
17209;BME280;8720;48.488;9.202;2023-02-02T00:06:20;97697.56;;;10.30;56.39
17209;BME280;8720;48.488;9.202;2023-02-02T00:08:49;97698.41;;;10.30;56.39
17209;BME280;8720;48.488;9.202;2023-02-02T00:11:18;97680.13;;;10.29;56.42
17209;BME280;8720;48.488;9.202;2023-02-02T00:13:45;97683.59;;;10.31;56.61
17209;BME280;8720;48.488;9.202;2023-02-02T00:16:41;97693.22;;;10.27;56.65
17209;BME280;8720;48.488;9.202;2023-02-02T00:19:12;97694.09;;;10.26;56.49
17209;BME280;8720;48.488;9.202;2023-02-02T00:21:39;97700.16;;;10.28;56.52
17209;BME280;8720;48.488;9.202;2023-02-02T00:24:10;97694.94;;;10.28;56.42
17209;BME280;8720;48.488;9.202;2023-02-02T00:26:40;97700.16;;;10.31;56.41
17209;BME280;8720;48.488;9.202;2023-02-02T00:29:15;97706.22;;;10.33;56.36
17209;BME280;8720;48.488;9.202;2023-02-02T00:31:43;97706.22;;;10.33;56.64
17209;BME280;8720;48.488;9.202;2023-02-02T00:34:11;97715.78;;;10.34;56.26
17209;BME280;8720;48.488;9.202;2023-02-02T00:36:38;97711.47;;;10.33;56.46
17209;BME280;8720;48.488;9.202;2023-02-02T00:39:06;97699.22;;;10.34;56.55
17209;BME280;8720;48.488;9.202;2023-02-02T00:41:35;97696.63;;;10.32;56.57
17209;BME280;8720;48.488;9.202;2023-02-02T00:44:02;97694.03;;;10.32;56.53
17209;BME280;8720;48.488;9.202;2023-02-02T00:46:48;97698.41;;;10.30;56.47
17209;BME280;8720;48.488;9.202;2023-02-02T00:49:16;97680.97;;;10.31;56.47
17209;BME280;8720;48.488;9.202;2023-02-02T00:51:43;97685.34;;;10.29;56.62
17209;BME280;8720;48.488;9.202;2023-02-02T00:54:10;97689.72;;;10.30;56.55
17209;BME280;8720;48.488;9.202;2023-02-02T00:56:41;97687.09;;;10.30;56.34
17209;BME280;8720;48.488;9.202;2023-02-02T00:59:11;97691.47;;;10.29;56.48
17209;BME280;8720;48.488;9.202;2023-02-02T01:01:38;97676.72;;;10.22;56.48
17209;BME280;8720;48.488;9.202;2023-02-02T01:04:06;97683.59;;;10.31;56.43
17209;BME280;8720;48.488;9.202;2023-02-02T01:06:33;97685.34;;;10.30;56.54
17209;BME280;8720;48.488;9.202;2023-02-02T01:09:01;97684.44;;;10.33;56.43
17209;BME280;8720;48.488;9.202;2023-02-02T01:11:30;97683.53;;;10.34;56.37
17209;BME280;8720;48.488;9.202;2023-02-02T01:13:58;97684.47;;;10.31;56.43
17209;BME280;8720;48.488;9.202;2023-02-02T01:16:26;97684.44;;;10.33;56.48
17209;BME280;8720;48.488;9.202;2023-02-02T01:18:53;97661.03;;;10.24;56.50
17209;BME280;8720;48.488;9.202;2023-02-02T01:21:22;97685.31;;;10.33;56.36
17209;BME280;8720;48.488;9.202;2023-02-02T01:23:49;97684.44;;;10.33;56.33
17209;BME280;8720;48.488;9.202;2023-02-02T01:26:17;97675.69;;;10.34;56.29
17209;BME280;8720;48.488;9.202;2023-02-02T01:28:44;97686.16;;;10.34;56.35
17209;BME280;8720;48.488;9.202;2023-02-02T01:31:18;97685.28;;;10.35;56.44
17209;BME280;8720;48.488;9.202;2023-02-02T01:33:47;97693.16;;;10.33;56.34
17209;BME280;8720;48.488;9.202;2023-02-02T01:36:20;97694.00;;;10.35;56.37
17209;BME280;8720;48.488;9.202;2023-02-02T01:38:49;97696.63;;;10.35;56.38
17209;BME280;8720;48.488;9.202;2023-02-02T01:41:19;97694.00;;;10.35;56.39
17209;BME280;8720;48.488;9.202;2023-02-02T01:43:55;97683.63;;;10.26;56.32
17209;BME280;8720;48.488;9.202;2023-02-02T01:46:27;97702.72;;;10.34;56.58
17209;BME280;8720;48.488;9.202;2023-02-02T01:49:02;97685.31;;;10.32;56.58
17209;BME280;8720;48.488;9.202;2023-02-02T01:51:39;97666.28;;;10.21;56.51
17209;BME280;8720;48.488;9.202;2023-02-02T01:54:18;97686.19;;;10.31;56.68
17209;BME280;8720;48.488;9.202;2023-02-02T01:56:52;97681.88;;;10.30;56.83
17209;BME280;8720;48.488;9.202;2023-02-02T01:59:21;97681.88;;;10.30;56.85
17209;BME280;8720;48.488;9.202;2023-02-02T02:01:51;97686.25;;;10.28;56.75
17209;BME280;8720;48.488;9.202;2023-02-02T02:04:21;97681.91;;;10.25;56.91
17209;BME280;8720;48.488;9.202;2023-02-02T02:06:50;97671.47;;;10.22;56.80
17209;BME280;8720;48.488;9.202;2023-02-02T02:09:19;97677.63;;;10.20;56.96
17209;BME280;8720;48.488;9.202;2023-02-02T02:11:47;97665.47;;;10.16;57.13
17209;BME280;8720;48.488;9.202;2023-02-02T02:14:15;97677.59;;;10.21;56.93
17209;BME280;8720;48.488;9.202;2023-02-02T02:17:17;97676.75;;;10.19;56.94
17209;BME280;8720;48.488;9.202;2023-02-02T02:24:06;97675.97;;;10.14;57.34
17209;BME280;8720;48.488;9.202;2023-02-02T02:30:44;97683.81;;;10.11;57.61
17209;BME280;8720;48.488;9.202;2023-02-02T02:33:25;97674.22;;;10.13;57.32
17209;BME280;8720;48.488;9.202;2023-02-02T02:36:11;97678.56;;;10.14;57.23
17209;BME280;8720;48.488;9.202;2023-02-02T02:38:51;97675.97;;;10.14;57.30
17209;BME280;8720;48.488;9.202;2023-02-02T02:41:28;97666.34;;;10.15;57.16
17209;BME280;8720;48.488;9.202;2023-02-02T02:44:04;97667.25;;;10.14;57.14
17209;BME280;8720;48.488;9.202;2023-02-02T02:46:34;97679.44;;;10.16;57.25
17209;BME280;8720;48.488;9.202;2023-02-02T02:49:03;97675.88;;;10.19;57.13
17209;BME280;8720;48.488;9.202;2023-02-02T02:51:44;97674.16;;;10.19;57.23
17209;BME280;8720;48.488;9.202;2023-02-02T02:54:20;97680.22;;;10.21;57.10
17209;BME280;8720;48.488;9.202;2023-02-02T02:57:16;97688.09;;;10.20;57.14
17209;BME280;8720;48.488;9.202;2023-02-02T02:59:57;97689.81;;;10.21;57.08
17209;BME280;8720;48.488;9.202;2023-02-02T03:05:14;97688.00;;;10.24;57.24
17209;BME280;8720;48.488;9.202;2023-02-02T03:07:50;97690.63;;;10.24;57.07
17209;BME280;8720;48.488;9.202;2023-02-02T03:10:25;97685.41;;;10.26;57.22
17209;BME280;8720;48.488;9.202;2023-02-02T03:12:56;97696.72;;;10.25;57.08
17209;BME280;8720;48.488;9.202;2023-02-02T03:15:27;97686.25;;;10.26;57.10
17209;BME280;8720;48.488;9.202;2023-02-02T03:17:54;97685.38;;;10.27;57.05
17209;BME280;8720;48.488;9.202;2023-02-02T03:20:25;97685.38;;;10.27;57.16
17209;BME280;8720;48.488;9.202;2023-02-02T03:22:52;97682.75;;;10.27;57.00
17209;BME280;8720;48.488;9.202;2023-02-02T03:25:20;97666.31;;;10.19;57.00
17209;BME280;8720;48.488;9.202;2023-02-02T03:27:48;97677.50;;;10.29;57.18
17209;BME280;8720;48.488;9.202;2023-02-02T03:30:16;97680.09;;;10.30;57.04
17209;BME280;8720;48.488;9.202;2023-02-02T03:32:45;97679.22;;;10.31;57.09
17209;BME280;8720;48.488;9.202;2023-02-02T03:35:13;97676.59;;;10.33;57.05
17209;BME280;8720;48.488;9.202;2023-02-02T03:37:41;97680.09;;;10.33;56.93
17209;BME280;8720;48.488;9.202;2023-02-02T03:40:10;97664.38;;;10.35;57.10
17209;BME280;8720;48.488;9.202;2023-02-02T03:42:37;97673.91;;;10.36;56.94
17209;BME280;8720;48.488;9.202;2023-02-02T03:45:06;97676.53;;;10.36;56.96
17209;BME280;8720;48.488;9.202;2023-02-02T03:47:34;97676.53;;;10.36;57.08
17209;BME280;8720;48.488;9.202;2023-02-02T03:50:01;97678.31;;;10.35;56.91
17209;BME280;8720;48.488;9.202;2023-02-02T03:52:28;97686.16;;;10.35;56.90
17209;BME280;8720;48.488;9.202;2023-02-02T03:54:57;97685.28;;;10.35;56.84
17209;BME280;8720;48.488;9.202;2023-02-02T03:57:24;97689.63;;;10.34;56.86
17209;BME280;8720;48.488;9.202;2023-02-02T03:59:51;97691.44;;;10.31;57.03
17209;BME280;8720;48.488;9.202;2023-02-02T04:02:19;97702.72;;;10.34;56.90
17209;BME280;8720;48.488;9.202;2023-02-02T04:04:46;97696.59;;;10.34;57.00
17209;BME280;8720;48.488;9.202;2023-02-02T04:07:14;97697.50;;;10.33;56.93
17209;BME280;8720;48.488;9.202;2023-02-02T04:09:41;97701.88;;;10.32;56.97
17209;BME280;8720;48.488;9.202;2023-02-02T04:12:10;97691.38;;;10.34;56.99
17209;BME280;8720;48.488;9.202;2023-02-02T04:14:37;97698.38;;;10.33;57.12
17209;BME280;8720;48.488;9.202;2023-02-02T04:17:04;97708.84;;;10.33;57.09
17209;BME280;8720;48.488;9.202;2023-02-02T04:19:31;97698.34;;;10.35;56.94
17209;BME280;8720;48.488;9.202;2023-02-02T04:21:59;97709.69;;;10.35;57.10
17209;BME280;8720;48.488;9.202;2023-02-02T04:24:26;97719.28;;;10.35;56.91
17209;BME280;8720;48.488;9.202;2023-02-02T04:26:53;97725.38;;;10.35;56.93
17209;BME280;8720;48.488;9.202;2023-02-02T04:29:22;97723.63;;;10.34;57.01
17209;BME280;8720;48.488;9.202;2023-02-02T04:31:50;97716.66;;;10.35;57.12
17209;BME280;8720;48.488;9.202;2023-02-02T04:34:17;97716.69;;;10.33;56.98
17209;BME280;8720;48.488;9.202;2023-02-02T04:36:44;97729.75;;;10.33;56.93
17209;BME280;8720;48.488;9.202;2023-02-02T04:39:12;97709.75;;;10.31;56.94
17209;BME280;8720;48.488;9.202;2023-02-02T04:41:39;97724.50;;;10.35;57.12
17209;BME280;8720;48.488;9.202;2023-02-02T04:44:13;97725.34;;;10.38;56.99
17209;BME280;8720;48.488;9.202;2023-02-02T04:46:43;97713.97;;;10.41;57.08
17209;BME280;8720;48.488;9.202;2023-02-02T04:49:11;97705.25;;;10.40;57.09
17209;BME280;8720;48.488;9.202;2023-02-02T04:51:39;97698.28;;;10.41;56.82
17209;BME280;8720;48.488;9.202;2023-02-02T04:54:07;97708.75;;;10.41;57.11
17209;BME280;8720;48.488;9.202;2023-02-02T04:56:35;97712.25;;;10.41;56.94
17209;BME280;8720;48.488;9.202;2023-02-02T04:59:02;97720.06;;;10.40;56.95
17209;BME280;8720;48.488;9.202;2023-02-02T05:01:29;97716.63;;;10.39;57.10
17209;BME280;8720;48.488;9.202;2023-02-02T05:03:58;97706.16;;;10.39;56.97
17209;BME280;8720;48.488;9.202;2023-02-02T05:06:25;97716.63;;;10.38;57.31
17209;BME280;8720;48.488;9.202;2023-02-02T05:08:52;97714.84;;;10.41;56.89
17209;BME280;8720;48.488;9.202;2023-02-02T05:11:22;97717.44;;;10.43;56.87
17209;BME280;8720;48.488;9.202;2023-02-02T05:13:52;97715.66;;;10.43;56.92
17209;BME280;8720;48.488;9.202;2023-02-02T05:16:20;97708.72;;;10.42;57.07
17209;BME280;8720;48.488;9.202;2023-02-02T05:18:49;97711.41;;;10.36;57.04
17209;BME280;8720;48.488;9.202;2023-02-02T05:21:19;97717.44;;;10.43;57.07
17209;BME280;8720;48.488;9.202;2023-02-02T05:23:47;97726.13;;;10.43;57.07
17209;BME280;8720;48.488;9.202;2023-02-02T05:26:17;97740.97;;;10.44;57.10
17209;BME280;8720;48.488;9.202;2023-02-02T05:28:45;97737.44;;;10.45;57.02
17209;BME280;8720;48.488;9.202;2023-02-02T05:31:13;97742.69;;;10.45;57.07
17209;BME280;8720;48.488;9.202;2023-02-02T05:33:41;97734.03;;;10.40;57.01
17209;BME280;8720;48.488;9.202;2023-02-02T05:36:09;97740.06;;;10.45;56.97
17209;BME280;8720;48.488;9.202;2023-02-02T05:38:37;97737.44;;;10.45;57.09
17209;BME280;8720;48.488;9.202;2023-02-02T05:41:05;97747.06;;;10.45;57.06
17209;BME280;8720;48.488;9.202;2023-02-02T05:43:32;97747.03;;;10.46;56.89
17209;BME280;8720;48.488;9.202;2023-02-02T05:46:00;97733.09;;;10.46;56.84
17209;BME280;8720;48.488;9.202;2023-02-02T05:48:27;97748.75;;;10.49;56.95
17209;BME280;8720;48.488;9.202;2023-02-02T05:51:00;97755.75;;;10.48;56.82
17209;BME280;8720;48.488;9.202;2023-02-02T05:53:30;97754.84;;;10.49;56.91
17209;BME280;8720;48.488;9.202;2023-02-02T05:55:59;97756.59;;;10.50;56.82
17209;BME280;8720;48.488;9.202;2023-02-02T05:58:27;97762.69;;;10.51;57.03
17209;BME280;8720;48.488;9.202;2023-02-02T06:00:54;97758.31;;;10.53;57.05
17209;BME280;8720;48.488;9.202;2023-02-02T06:03:21;97763.53;;;10.53;56.85
17209;BME280;8720;48.488;9.202;2023-02-02T06:05:48;97753.06;;;10.54;56.93
17209;BME280;8720;48.488;9.202;2023-02-02T06:08:16;97750.53;;;10.47;57.04
17209;BME280;8720;48.488;9.202;2023-02-02T06:10:43;97761.78;;;10.52;56.95
17209;BME280;8720;48.488;9.202;2023-02-02T06:13:12;97747.88;;;10.48;56.88
17209;BME280;8720;48.488;9.202;2023-02-02T06:15:39;97762.63;;;10.55;57.08
17209;BME280;8720;48.488;9.202;2023-02-02T06:18:08;97770.53;;;10.51;56.84
17209;BME280;8720;48.488;9.202;2023-02-02T06:20:35;97768.75;;;10.51;57.37
17209;BME280;8720;48.488;9.202;2023-02-02T06:23:03;97786.16;;;10.58;57.16
17209;BME280;8720;48.488;9.202;2023-02-02T06:25:30;97769.66;;;10.50;57.06
17209;BME280;8720;48.488;9.202;2023-02-02T06:28:00;97786.97;;;10.59;57.04
17209;BME280;8720;48.488;9.202;2023-02-02T06:30:28;97784.41;;;10.57;57.01
17209;BME280;8720;48.488;9.202;2023-02-02T06:32:58;97800.09;;;10.57;57.15
17209;BME280;8720;48.488;9.202;2023-02-02T06:35:26;97789.66;;;10.56;57.16
17209;BME280;8720;48.488;9.202;2023-02-02T06:37:54;97790.53;;;10.56;57.18
17209;BME280;8720;48.488;9.202;2023-02-02T06:40:21;97775.75;;;10.49;56.66
17209;BME280;8720;48.488;9.202;2023-02-02T06:42:55;97781.84;;;10.51;57.19
17209;BME280;8720;48.488;9.202;2023-02-02T06:45:23;97790.63;;;10.46;57.34
17209;BME280;8720;48.488;9.202;2023-02-02T06:47:52;97784.59;;;10.41;57.36
17209;BME280;8720;48.488;9.202;2023-02-02T06:50:20;97802.81;;;10.48;57.30
17209;BME280;8720;48.488;9.202;2023-02-02T06:52:47;97788.97;;;10.39;57.23
17209;BME280;8720;48.488;9.202;2023-02-02T06:55:15;97796.75;;;10.46;57.17
17209;BME280;8720;48.488;9.202;2023-02-02T06:57:43;97804.59;;;10.46;57.33
17209;BME280;8720;48.488;9.202;2023-02-02T07:00:12;97804.59;;;10.46;57.39
17209;BME280;8720;48.488;9.202;2023-02-02T07:02:44;97802.03;;;10.40;57.34
17209;BME280;8720;48.488;9.202;2023-02-02T07:05:13;97809.78;;;10.48;57.49
17209;BME280;8720;48.488;9.202;2023-02-02T07:07:40;97806.28;;;10.50;57.45
17209;BME280;8720;48.488;9.202;2023-02-02T07:10:08;97807.13;;;10.52;57.39
17209;BME280;8720;48.488;9.202;2023-02-02T07:12:36;97805.38;;;10.54;57.19
17209;BME280;8720;48.488;9.202;2023-02-02T07:15:04;97805.34;;;10.56;57.42
17209;BME280;8720;48.488;9.202;2023-02-02T07:17:32;97792.28;;;10.56;57.40
17209;BME280;8720;48.488;9.202;2023-02-02T07:19:59;97795.75;;;10.56;57.49
17209;BME280;8720;48.488;9.202;2023-02-02T07:22:30;97803.59;;;10.56;57.39
17209;BME280;8720;48.488;9.202;2023-02-02T07:24:57;97800.97;;;10.55;57.37
17209;BME280;8720;48.488;9.202;2023-02-02T07:27:25;97808.84;;;10.56;57.45
17209;BME280;8720;48.488;9.202;2023-02-02T07:29:52;97807.97;;;10.56;57.47
17209;BME280;8720;48.488;9.202;2023-02-02T07:32:19;97800.16;;;10.54;57.17
17209;BME280;8720;48.488;9.202;2023-02-02T07:34:47;97812.31;;;10.58;57.34
17209;BME280;8720;48.488;9.202;2023-02-02T07:37:15;97817.50;;;10.61;57.40
17209;BME280;8720;48.488;9.202;2023-02-02T07:39:43;97807.91;;;10.59;57.44
17209;BME280;8720;48.488;9.202;2023-02-02T07:42:11;97812.25;;;10.64;57.27
17209;BME280;8720;48.488;9.202;2023-02-02T07:44:40;97819.19;;;10.65;57.30
17209;BME280;8720;48.488;9.202;2023-02-02T07:47:08;97807.81;;;10.69;57.36
17209;BME280;8720;48.488;9.202;2023-02-02T07:49:35;97814.75;;;10.73;57.28
17209;BME280;8720;48.488;9.202;2023-02-02T07:52:02;97815.63;;;10.74;57.28
17209;BME280;8720;48.488;9.202;2023-02-02T07:54:30;97810.38;;;10.74;57.40
17209;BME280;8720;48.488;9.202;2023-02-02T07:56:59;97811.28;;;10.70;57.28
17209;BME280;8720;48.488;9.202;2023-02-02T07:59:27;97819.09;;;10.76;57.42
17209;BME280;8720;48.488;9.202;2023-02-02T08:01:54;97830.38;;;10.76;57.32
17209;BME280;8720;48.488;9.202;2023-02-02T08:04:21;97847.81;;;10.79;57.18
17209;BME280;8720;48.488;9.202;2023-02-02T08:06:49;97848.66;;;10.81;57.37
17209;BME280;8720;48.488;9.202;2023-02-02T08:09:16;97844.28;;;10.83;57.21
17209;BME280;8720;48.488;9.202;2023-02-02T08:11:43;97842.50;;;10.85;57.19
17209;BME280;8720;48.488;9.202;2023-02-02T08:14:12;97839.94;;;10.83;57.13
17209;BME280;8720;48.488;9.202;2023-02-02T08:16:43;97849.50;;;10.84;57.30
17209;BME280;8720;48.488;9.202;2023-02-02T08:19:10;97849.50;;;10.84;57.45
17209;BME280;8720;48.488;9.202;2023-02-02T08:21:38;97831.16;;;10.84;57.45
17209;BME280;8720;48.488;9.202;2023-02-02T08:24:05;97838.16;;;10.85;57.41
17209;BME280;8720;48.488;9.202;2023-02-02T08:26:32;97839.84;;;10.88;57.47
17209;BME280;8720;48.488;9.202;2023-02-02T08:29:03;97833.75;;;10.89;57.31
17209;BME280;8720;48.488;9.202;2023-02-02T08:31:34;97819.75;;;10.93;57.39
17209;BME280;8720;48.488;9.202;2023-02-02T08:34:03;97827.53;;;10.96;57.46
17209;BME280;8720;48.488;9.202;2023-02-02T08:36:31;97813.66;;;10.88;57.26
17209;BME280;8720;48.488;9.202;2023-02-02T08:39:01;97831.03;;;10.96;57.41
17209;BME280;8720;48.488;9.202;2023-02-02T08:41:28;97829.28;;;10.97;57.27
17209;BME280;8720;48.488;9.202;2023-02-02T08:43:56;97830.97;;;10.99;57.28
17209;BME280;8720;48.488;9.202;2023-02-02T08:46:23;97834.41;;;11.03;57.44
17209;BME280;8720;48.488;9.202;2023-02-02T08:48:52;97839.59;;;11.08;57.23
17209;BME280;8720;48.488;9.202;2023-02-02T08:51:20;97840.44;;;11.11;57.28
17209;BME280;8720;48.488;9.202;2023-02-02T08:53:47;97822.28;;;10.99;57.19
17209;BME280;8720;48.488;9.202;2023-02-02T08:56:16;97846.50;;;11.16;57.07
17209;BME280;8720;48.488;9.202;2023-02-02T08:58:46;97867.38;;;11.19;56.74
17209;BME280;8720;48.488;9.202;2023-02-02T09:01:17;97863.88;;;11.22;57.13
17209;BME280;8720;48.488;9.202;2023-02-02T09:03:45;97870.81;;;11.26;57.13
17209;BME280;8720;48.488;9.202;2023-02-02T09:06:17;97860.25;;;11.32;57.03
17209;BME280;8720;48.488;9.202;2023-02-02T09:08:46;97854.09;;;11.33;56.90
17209;BME280;8720;48.488;9.202;2023-02-02T09:11:17;97860.22;;;11.33;56.90
17209;BME280;8720;48.488;9.202;2023-02-02T09:13:47;97882.00;;;11.37;56.98
17209;BME280;8720;48.488;9.202;2023-02-02T09:16:16;97887.22;;;11.38;56.79
17209;BME280;8720;48.488;9.202;2023-02-02T09:18:45;97901.16;;;11.40;56.78
17209;BME280;8720;48.488;9.202;2023-02-02T09:21:16;97901.16;;;11.40;56.96
17209;BME280;8720;48.488;9.202;2023-02-02T09:23:46;97901.13;;;11.42;56.80
17209;BME280;8720;48.488;9.202;2023-02-02T09:26:17;97888.16;;;11.33;56.40
17209;BME280;8720;48.488;9.202;2023-02-02T09:28:47;97913.38;;;11.43;56.86
17209;BME280;8720;48.488;9.202;2023-02-02T09:31:15;97905.47;;;11.44;56.86
17209;BME280;8720;48.488;9.202;2023-02-02T09:33:43;97901.13;;;11.43;56.67
17209;BME280;8720;48.488;9.202;2023-02-02T09:36:15;97899.34;;;11.44;56.83
17209;BME280;8720;48.488;9.202;2023-02-02T09:38:43;97909.00;;;11.43;56.76
17209;BME280;8720;48.488;9.202;2023-02-02T09:47:52;97922.94;;;11.44;57.25
17209;BME280;8720;48.488;9.202;2023-02-02T09:50:45;97922.06;;;11.45;57.24
17209;BME280;8720;48.488;9.202;2023-02-02T09:53:33;97921.16;;;11.46;57.47
17209;BME280;8720;48.488;9.202;2023-02-02T09:56:07;97930.78;;;11.47;57.34
17209;BME280;8720;48.488;9.202;2023-02-02T09:58:44;97927.25;;;11.48;57.53
17209;BME280;8720;48.488;9.202;2023-02-02T10:01:21;97929.00;;;11.49;57.55
17209;BME280;8720;48.488;9.202;2023-02-02T10:03:59;97934.25;;;11.49;57.74
17209;BME280;8720;48.488;9.202;2023-02-02T10:06:36;97939.47;;;11.47;57.78
17209;BME280;8720;48.488;9.202;2023-02-02T10:09:24;97936.88;;;11.46;57.73
17209;BME280;8720;48.488;9.202;2023-02-02T10:12:03;97938.63;;;11.47;57.69
17209;BME280;8720;48.488;9.202;2023-02-02T10:14:39;97945.59;;;11.48;57.76
17209;BME280;8720;48.488;9.202;2023-02-02T10:17:34;97941.22;;;11.48;57.82
17209;BME280;8720;48.488;9.202;2023-02-02T10:20:16;97947.34;;;11.49;57.82
17209;BME280;8720;48.488;9.202;2023-02-02T10:22:47;97937.69;;;11.52;58.21
17209;BME280;8720;48.488;9.202;2023-02-02T10:25:16;97929.78;;;11.55;58.04
17209;BME280;8720;48.488;9.202;2023-02-02T10:27:58;97932.38;;;11.58;58.08
17209;BME280;8720;48.488;9.202;2023-02-02T10:30:43;97935.84;;;11.57;58.23
17209;BME280;8720;48.488;9.202;2023-02-02T10:33:20;97932.38;;;11.58;58.32
17209;BME280;8720;48.488;9.202;2023-02-02T10:35:59;97939.34;;;11.59;58.28
17209;BME280;8720;48.488;9.202;2023-02-02T10:38:40;97924.47;;;11.60;58.32
17209;BME280;8720;48.488;9.202;2023-02-02T10:41:20;97928.81;;;11.61;58.49
17209;BME280;8720;48.488;9.202;2023-02-02T10:44:10;97917.47;;;11.62;58.40
17209;BME280;8720;48.488;9.202;2023-02-02T10:46:44;97924.44;;;11.63;58.31
17209;BME280;8720;48.488;9.202;2023-02-02T10:49:21;97927.91;;;11.65;58.48
17209;BME280;8720;48.488;9.202;2023-02-02T10:51:56;97916.56;;;11.63;58.59
17209;BME280;8720;48.488;9.202;2023-02-02T10:54:55;97931.31;;;11.73;58.72
17209;BME280;8720;48.488;9.202;2023-02-02T10:57:45;97926.03;;;11.76;58.73
17209;BME280;8720;48.488;9.202;2023-02-02T11:00:21;97928.56;;;11.82;58.55
17209;BME280;8720;48.488;9.202;2023-02-02T11:02:51;97938.97;;;11.86;58.46
17209;BME280;8720;48.488;9.202;2023-02-02T11:05:25;97926.69;;;11.90;58.47
17209;BME280;8720;48.488;9.202;2023-02-02T11:08:15;97928.44;;;11.91;58.40
17209;BME280;8720;48.488;9.202;2023-02-02T11:10:46;97931.88;;;11.95;58.35
17209;BME280;8720;48.488;9.202;2023-02-02T11:13:27;97931.84;;;11.96;58.00
17209;BME280;8720;48.488;9.202;2023-02-02T11:16:26;97929.22;;;11.96;58.28
17209;BME280;8720;48.488;9.202;2023-02-02T11:18:54;97930.91;;;12.00;58.26
17209;BME280;8720;48.488;9.202;2023-02-02T11:21:25;97929.13;;;12.02;58.00
17209;BME280;8720;48.488;9.202;2023-02-02T11:23:55;97922.97;;;12.06;57.94
17209;BME280;8720;48.488;9.202;2023-02-02T11:26:24;97938.66;;;12.08;57.92
17209;BME280;8720;48.488;9.202;2023-02-02T11:28:54;97928.19;;;12.08;57.56
17209;BME280;8720;48.488;9.202;2023-02-02T11:31:32;97934.34;;;12.05;57.75
17209;BME280;8720;48.488;9.202;2023-02-02T11:34:16;97930.03;;;12.01;57.62
17209;BME280;8720;48.488;9.202;2023-02-02T11:37:00;97931.81;;;11.98;57.73
17209;BME280;8720;48.488;9.202;2023-02-02T11:39:27;97929.19;;;11.99;57.94
17209;BME280;8720;48.488;9.202;2023-02-02T11:42:05;97930.88;;;12.03;57.90
17209;BME280;8720;48.488;9.202;2023-02-02T11:44:38;97936.06;;;12.06;57.92
17209;BME280;8720;48.488;9.202;2023-02-02T11:47:06;97942.13;;;12.10;58.04
17209;BME280;8720;48.488;9.202;2023-02-02T11:49:42;97938.59;;;12.12;58.08
17209;BME280;8720;48.488;9.202;2023-02-02T11:52:17;97936.84;;;12.13;57.92
17209;BME280;8720;48.488;9.202;2023-02-02T11:54:48;97935.97;;;12.12;57.99
17209;BME280;8720;48.488;9.202;2023-02-02T11:57:20;97938.63;;;12.11;58.18
17209;BME280;8720;48.488;9.202;2023-02-02T11:59:50;97940.38;;;12.10;58.08
17209;BME280;8720;48.488;9.202;2023-02-02T12:02:32;97942.13;;;12.10;57.90
17209;BME280;8720;48.488;9.202;2023-02-02T12:05:37;97946.59;;;12.05;58.31
17209;BME280;8720;48.488;9.202;2023-02-02T12:08:06;97944.00;;;12.03;58.00
17209;BME280;8720;48.488;9.202;2023-02-02T12:10:41;97937.88;;;12.03;58.06
17209;BME280;8720;48.488;9.202;2023-02-02T12:13:21;97928.25;;;12.02;58.12
17209;BME280;8720;48.488;9.202;2023-02-02T12:16:05;97906.59;;;11.91;58.42
17209;BME280;8720;48.488;9.202;2023-02-02T12:18:48;97926.47;;;12.04;58.12
17209;BME280;8720;48.488;9.202;2023-02-02T12:21:36;97920.41;;;12.03;58.37
17209;BME280;8720;48.488;9.202;2023-02-02T12:24:28;97919.56;;;12.01;58.51
17209;BME280;8720;48.488;9.202;2023-02-02T12:27:10;97919.56;;;12.01;58.38
17209;BME280;8720;48.488;9.202;2023-02-02T12:30:00;97915.25;;;11.97;58.36
17209;BME280;8720;48.488;9.202;2023-02-02T12:32:49;97921.41;;;11.93;58.63
17209;BME280;8720;48.488;9.202;2023-02-02T12:35:48;97925.00;;;11.88;58.68
17209;BME280;8720;48.488;9.202;2023-02-02T12:38:33;97914.50;;;11.88;58.52
17209;BME280;8720;48.488;9.202;2023-02-02T12:41:33;97924.16;;;11.84;58.82
17209;BME280;8720;48.488;9.202;2023-02-02T12:44:16;97924.19;;;11.82;58.51
17209;BME280;8720;48.488;9.202;2023-02-02T12:47:04;97927.72;;;11.81;58.60
17209;BME280;8720;48.488;9.202;2023-02-02T12:50:03;97922.50;;;11.80;58.81
17209;BME280;8720;48.488;9.202;2023-02-02T12:52:53;97919.88;;;11.78;58.79
17209;BME280;8720;48.488;9.202;2023-02-02T12:55:33;97912.00;;;11.78;58.76
17209;BME280;8720;48.488;9.202;2023-02-02T12:58:15;97921.66;;;11.78;58.86
17209;BME280;8720;48.488;9.202;2023-02-02T13:01:21;97926.03;;;11.76;59.06
17209;BME280;8720;48.488;9.202;2023-02-02T13:04:23;97933.03;;;11.75;59.09
17209;BME280;8720;48.488;9.202;2023-02-02T13:07:29;97919.97;;;11.74;59.26
17209;BME280;8720;48.488;9.202;2023-02-02T13:10:15;97906.06;;;11.67;58.93
17209;BME280;8720;48.488;9.202;2023-02-02T13:12:51;97923.53;;;11.68;58.94
17209;BME280;8720;48.488;9.202;2023-02-02T13:15:25;97926.19;;;11.65;59.11
17209;BME280;8720;48.488;9.202;2023-02-02T13:17:59;97927.03;;;11.63;58.89
17209;BME280;8720;48.488;9.202;2023-02-02T13:20:36;97921.00;;;11.58;59.03
17209;BME280;8720;48.488;9.202;2023-02-02T13:23:11;97923.66;;;11.56;58.94
17209;BME280;8720;48.488;9.202;2023-02-02T13:25:46;97927.19;;;11.54;59.29
17209;BME280;8720;48.488;9.202;2023-02-02T13:28:29;97931.53;;;11.53;59.19
17209;BME280;8720;48.488;9.202;2023-02-02T13:31:01;97924.56;;;11.54;59.23
17209;BME280;8720;48.488;9.202;2023-02-02T13:33:35;97920.22;;;11.53;59.31
17209;BME280;8720;48.488;9.202;2023-02-02T13:36:13;97918.47;;;11.52;59.30
17209;BME280;8720;48.488;9.202;2023-02-02T13:38:45;97921.97;;;11.52;59.36
17209;BME280;8720;48.488;9.202;2023-02-02T13:41:13;97915.81;;;11.53;59.60
17209;BME280;8720;48.488;9.202;2023-02-02T13:43:51;97936.78;;;11.55;59.66
17209;BME280;8720;48.488;9.202;2023-02-02T13:46:30;97941.97;;;11.58;59.53
17209;BME280;8720;48.488;9.202;2023-02-02T13:49:06;97929.75;;;11.58;59.42
17209;BME280;8720;48.488;9.202;2023-02-02T13:52:11;97950.75;;;11.57;59.55
17209;BME280;8720;48.488;9.202;2023-02-02T13:55:15;97949.88;;;11.53;59.62
17209;BME280;8720;48.488;9.202;2023-02-02T13:58:19;97954.31;;;11.50;59.50